Cervia, Italy

11:45 PM CET on March 03, 2015 (GMT +0100)
Cervia - Pinarella | Change Station
CLOSE
Current Station
Personal Weather Station
Location: Cervia,
Elevation: 0 ft
Nearby Weather Stations

Elev 0 ft 44.25 °N, 12.37 °E | Updated 4 minutes ago

Fog
Fog
45.0 °F
Feels Like 45 °F
N
1.0
Wind Variable Wind from West
Gusts 5.0 mph

Today
High -- | Low -- °F
--% Chance of Precip.
Yesterday
High -- | Low -- °F
Precip. -- in
6:45 AM 6:00 PM
Waxing Gibbous, 97% visible
Pressure 30.21 in
Visibility 0.0 miles
Clouds Mostly Cloudy 100 ft
Windchill 45 °F
Dew Point 44 °F
Humidity 96%
Rainfall -999.00 in
Snow Depth Not available.
UV 0 out of 12
Pollen Not available.
Air Quality Not available.
Flu Activity Not available.
METAR LIPC 032155Z 28001KT 0050 R11/0200 FG BKN001 07/05 Q1023 RMK BKN VIS MIN 0050 WIND THR11 27002KT RED

More Conditions Fewer Conditions

Pressure 30.21 in
Visibility 0.0 miles
Clouds Mostly Cloudy 100 ft
Windchill 45 °F
Dew Point 44 °F
Humidity 96%
Rainfall -999.00 in
Snow Depth Not available.
UV 0 out of 12
Pollen Not available.
Air Quality Not available.
Flu Activity Not available.
METAR LIPC 032155Z 28001KT 0050 R11/0200 FG BKN001 07/05 Q1023 RMK BKN VIS MIN 0050 WIND THR11 27002KT RED

More Conditions Fewer Conditions

10-Day Weather Forecast

Almanac

Astronomy

Mar. 03, 2015 Rise Set
Actual Time
Civil Twilight
Nautical Twilight
Astronomical Twilight
Moon
Length of Visible Light
Length of Day
Tomorrow will be .
, % of the Moon is Illuminated

Today's Extremes

Country Highs Country Lows

Community

WunderPhotos

Upload Photos

1,802,299 photos uploaded!

WunderBlogs® & News

Nearby

Air Quality

  Air Quality AQ Index Pollutant
Not available.

Snow Depth

Station Depth Elevation

Earthquake Activity

City Distance Mag. Time & Date
Minimum magnitude displayed is 2.5.

Coastal Water Temperatures

Place Temperature

Nearby Weather Stations